Time;durP1;ratioP1;P1;durP2;ratioP2;P2;SDS_P1;SDS_P2;PMS_P1;PMS_P2;Temp;Humidity;BMP_temperature;BMP_pressure;BME280_temperature;BME280_humidity;BME280_pressure;Samples;Min_cycle;Max_cycle;Signal;HPM_P1;HPM_P2
2021/06/01 00:02:16;;;;;;;6.57;4.50;;;14.00;99.90;;;;;;5137676;28;20185;-80
2021/06/01 00:04:42;;;;;;;4.83;4.43;;;14.00;99.90;;;;;;5136589;28;20187;-81
2021/06/01 00:07:08;;;;;;;4.80;4.40;;;13.90;99.90;;;;;;5134050;28;20172;-81
2021/06/01 00:09:34;;;;;;;5.57;4.80;;;13.90;99.90;;;;;;5132805;28;20201;-81
2021/06/01 00:12:03;;;;;;;5.27;4.87;;;13.70;99.90;;;;;;5132467;28;20185;-81
2021/06/01 00:14:29;;;;;;;5.23;4.83;;;13.80;99.90;;;;;;5131571;28;20169;-81
2021/06/01 00:16:55;;;;;;;5.70;5.20;;;13.80;99.90;;;;;;5132115;28;20391;-81
2021/06/01 00:19:21;;;;;;;4.70;4.30;;;13.80;99.90;;;;;;5131825;28;20188;-81
2021/06/01 00:21:48;;;;;;;5.00;4.70;;;13.90;99.90;;;;;;5131363;28;20399;-81
2021/06/01 00:24:14;;;;;;;8.10;4.93;;;13.80;99.90;;;;;;5112526;28;20479;-81
2021/06/01 00:26:41;;;;;;;5.23;4.70;;;13.80;99.90;;;;;;5130710;28;20911;-81
2021/06/01 00:29:08;;;;;;;4.73;4.33;;;13.80;99.90;;;;;;5131192;28;20421;-81
2021/06/01 00:31:35;;;;;;;5.07;4.60;;;13.70;99.90;;;;;;5131026;28;20388;-81
2021/06/01 00:34:03;;;;;;;6.47;5.60;;;13.80;99.90;;;;;;5112609;28;20407;-81
2021/06/01 00:36:30;;;;;;;4.90;4.40;;;13.70;99.90;;;;;;5131771;28;20392;-81
2021/06/01 00:38:55;;;;;;;7.33;6.63;;;13.70;99.90;;;;;;5097606;28;20388;-81
2021/06/01 00:41:21;;;;;;;4.87;4.57;;;13.80;99.90;;;;;;5138721;28;20396;-81
2021/06/01 00:43:47;;;;;;;5.63;4.47;;;13.70;99.90;;;;;;5139836;28;20228;-81
2021/06/01 00:46:13;;;;;;;7.03;5.10;;;13.70;99.90;;;;;;5139876;27;20459;-81
2021/06/01 00:48:39;;;;;;;5.03;4.67;;;13.60;99.90;;;;;;5134733;28;20162;-81
2021/06/01 00:51:06;;;;;;;4.77;4.37;;;13.60;99.90;;;;;;5132275;28;20153;-80
2021/06/01 00:53:32;;;;;;;8.10;5.70;;;13.50;99.90;;;;;;5130558;28;20503;-81
2021/06/01 00:55:59;;;;;;;5.27;4.80;;;13.50;99.90;;;;;;5112064;28;20411;-81
2021/06/01 00:58:25;;;;;;;4.73;4.33;;;13.60;99.90;;;;;;5130078;28;20395;-81
2021/06/01 01:01:19;;;;;;;4.77;3.93;;;13.60;99.90;;;;;;5130112;28;20470;-81
2021/06/01 01:03:41;;;;;;;7.57;4.50;;;13.60;99.90;;;;;;5129734;28;20408;-81
2021/06/01 01:06:19;;;;;;;5.43;4.93;;;13.50;99.90;;;;;;5129253;28;20407;-81
2021/06/01 01:08:50;;;;;;;5.37;4.47;;;13.50;99.90;;;;;;5129926;28;20427;-79
2021/06/01 01:11:28;;;;;;;3.90;3.53;;;13.40;99.90;;;;;;5112795;28;20783;-81
2021/06/01 01:13:59;;;;;;;5.77;4.83;;;13.30;99.90;;;;;;5129574;28;20478;-81
2021/06/01 01:16:27;;;;;;;5.20;4.47;;;13.30;99.90;;;;;;5077257;28;20400;-80
2021/06/01 01:19:14;;;;;;;7.37;5.37;;;13.30;99.90;;;;;;5129788;28;20399;-80
2021/06/01 01:21:48;;;;;;;5.30;4.80;;;13.20;99.90;;;;;;5129208;28;20388;-81
2021/06/01 01:24:36;;;;;;;5.50;4.97;;;13.30;99.90;;;;;;5112465;28;20460;-80
2021/06/01 01:27:28;;;;;;;5.87;4.43;;;13.20;99.90;;;;;;5130047;28;20407;-81
2021/06/01 01:29:58;;;;;;;8.63;6.00;;;13.20;99.90;;;;;;5130168;28;20376;-81
2021/06/01 01:32:42;;;;;;;7.00;5.60;;;13.20;99.90;;;;;;5111681;28;20436;-80
2021/06/01 01:35:10;;;;;;;5.90;5.27;;;13.20;99.90;;;;;;5129407;28;20403;-81
2021/06/01 01:37:38;;;;;;;5.53;5.07;;;13.20;99.90;;;;;;5111105;28;20396;-81
2021/06/01 01:40:06;;;;;;;4.53;4.17;;;13.20;99.90;;;;;;5129869;28;20396;-81
2021/06/01 01:42:42;;;;;;;5.20;4.80;;;13.20;99.90;;;;;;5129244;28;20392;-80
2021/06/01 01:45:12;;;;;;;11.53;6.07;;;13.10;99.90;;;;;;5129505;28;20391;-81
2021/06/01 01:50:24;;;;;;;6.07;5.47;;;13.00;99.90;;;;;;5113549;28;20510;-81
2021/06/01 01:52:50;;;;;;;5.57;5.07;;;13.00;99.90;;;;;;5129154;28;20439;-80
2021/06/01 01:55:17;;;;;;;6.30;4.57;;;13.00;99.90;;;;;;5129112;28;20384;-81
2021/06/01 01:57:46;;;;;;;5.47;4.90;;;13.00;99.90;;;;;;5128470;28;20483;-80
2021/06/01 02:00:16;;;;;;;5.17;4.67;;;13.00;99.90;;;;;;5129215;28;21072;-80
2021/06/01 02:02:44;;;;;;;4.73;4.40;;;13.00;99.90;;;;;;5129781;28;20400;-81
2021/06/01 02:05:11;;;;;;;5.80;5.30;;;13.00;99.90;;;;;;5129629;28;20765;-81
2021/06/01 02:07:37;;;;;;;5.47;4.83;;;13.00;99.90;;;;;;5129951;28;20439;-81
2021/06/01 02:10:07;;;;;;;5.70;5.20;;;13.00;99.90;;;;;;5129355;28;20388;-81
2021/06/01 02:12:33;;;;;;;5.77;5.17;;;12.90;99.90;;;;;;5129541;28;20496;-81
2021/06/01 02:15:00;;;;;;;5.63;4.40;;;12.90;99.90;;;;;;5129121;28;20396;-81
2021/06/01 02:17:26;;;;;;;5.53;4.90;;;12.90;99.90;;;;;;5129918;28;20384;-81
2021/06/01 02:19:52;;;;;;;5.40;4.90;;;12.80;99.90;;;;;;5129727;28;20394;-81
2021/06/01 02:22:39;;;;;;;6.40;5.23;;;12.80;99.90;;;;;;5111769;28;20399;-80
2021/06/01 02:25:10;;;;;;;4.97;4.47;;;12.80;99.90;;;;;;5129180;28;20154;-81
2021/06/01 02:27:55;;;;;;;13.00;5.60;;;12.80;99.90;;;;;;5077450;28;20400;-81
2021/06/01 02:30:25;;;;;;;6.33;5.30;;;12.90;99.90;;;;;;5129631;28;20388;-81
2021/06/01 02:32:54;;;;;;;6.20;4.90;;;12.80;99.90;;;;;;5129345;28;20442;-81
2021/06/01 02:35:41;;;;;;;6.63;5.63;;;12.70;99.90;;;;;;5136388;28;20423;-79
2021/06/01 02:38:10;;;;;;;6.83;4.70;;;12.70;99.90;;;;;;5135039;28;20387;-81
2021/06/01 02:40:37;;;;;;;5.70;4.97;;;12.70;99.90;;;;;;5129988;28;20757;-81
2021/06/01 02:43:08;;;;;;;10.87;6.13;;;12.70;99.90;;;;;;5112626;28;20426;-81
2021/06/01 02:45:37;;;;;;;6.07;5.57;;;12.60;99.90;;;;;;5115326;28;20459;-81
2021/06/01 02:48:04;;;;;;;6.17;5.57;;;12.60;99.90;;;;;;5130842;28;20483;-81
2021/06/01 02:50:32;;;;;;;5.83;4.97;;;12.50;99.90;;;;;;5133296;28;20388;-80
2021/06/01 02:53:00;;;;;;;6.33;5.73;;;12.40;99.90;;;;;;5135049;28;20439;-79
2021/06/01 02:55:27;;;;;;;5.80;5.23;;;12.50;99.90;;;;;;5103573;28;20441;-78
2021/06/01 02:57:54;;;;;;;5.80;5.17;;;12.50;99.90;;;;;;5137482;28;20423;-80
2021/06/01 03:00:22;;;;;;;6.80;5.57;;;12.40;99.90;;;;;;5138904;28;20398;-80
2021/06/01 03:02:48;;;;;;;6.37;5.77;;;12.40;99.90;;;;;;5138092;28;20408;-80
2021/06/01 03:05:36;;;;;;;6.90;6.30;;;12.40;99.90;;;;;;5136898;28;20388;-79
2021/06/01 03:08:26;;;;;;;7.10;5.50;;;12.40;99.90;;;;;;5076391;28;20441;-80
2021/06/01 03:10:52;;;;;;;10.33;6.63;;;12.40;99.90;;;;;;5089930;28;20438;-80
2021/06/01 03:13:18;;;;;;;7.20;5.60;;;12.40;99.90;;;;;;5089497;28;20460;-80
2021/06/01 03:15:44;;;;;;;7.27;5.40;;;12.40;99.90;;;;;;5089756;28;20416;-79
2021/06/01 03:18:09;;;;;;;7.33;5.83;;;12.30;99.90;;;;;;5090120;28;20167;-80
2021/06/01 03:20:35;;;;;;;6.47;5.20;;;12.30;99.90;;;;;;5088722;28;20170;-80
2021/06/01 03:23:01;;;;;;;6.63;5.23;;;12.30;99.90;;;;;;5089012;28;20227;-80
2021/06/01 03:25:27;;;;;;;6.20;5.60;;;12.20;99.90;;;;;;5088661;28;20516;-80
2021/06/01 03:27:53;;;;;;;6.07;5.40;;;12.20;99.90;;;;;;5088618;28;20172;-80
2021/06/01 03:30:20;;;;;;;9.00;5.90;;;12.10;99.90;;;;;;5088640;28;20185;-80
2021/06/01 03:32:45;;;;;;;8.53;5.40;;;12.10;99.90;;;;;;5088960;28;20455;-81
2021/06/01 03:35:11;;;;;;;6.10;5.60;;;12.10;99.90;;;;;;5088433;28;20405;-81
2021/06/01 03:37:37;;;;;;;8.20;5.80;;;12.10;99.90;;;;;;5088909;28;20183;-80
2021/06/01 03:40:04;;;;;;;6.20;5.57;;;12.10;99.90;;;;;;5088903;28;20159;-79
2021/06/01 03:42:30;;;;;;;8.90;6.40;;;12.10;99.90;;;;;;5071589;28;20171;-80
2021/06/01 03:44:57;;;;;;;14.20;5.97;;;12.10;99.90;;;;;;5088921;28;20405;-80
2021/06/01 03:47:22;;;;;;;6.77;6.10;;;12.10;99.90;;;;;;5070955;28;20223;-80
2021/06/01 03:49:48;;;;;;;8.20;6.30;;;12.10;99.90;;;;;;5068004;28;20984;-80
2021/06/01 03:52:14;;;;;;;8.67;6.10;;;12.10;99.90;;;;;;5096352;28;20243;-80
2021/06/01 03:54:40;;;;;;;6.20;5.60;;;12.10;99.90;;;;;;5110940;28;20599;-80
2021/06/01 03:57:09;;;;;;;6.10;5.50;;;12.10;99.90;;;;;;5110656;28;20179;-81
2021/06/01 03:59:35;;;;;;;5.33;4.90;;;12.10;99.90;;;;;;5092853;28;20199;-80
2021/06/01 04:02:01;;;;;;;6.50;5.87;;;12.00;99.90;;;;;;5111182;28;20458;-81
2021/06/01 04:04:27;;;;;;;7.37;6.63;;;11.90;99.90;;;;;;5111164;28;20397;-80
2021/06/01 04:06:53;;;;;;;5.67;5.17;;;11.60;99.90;;;;;;5110844;28;20159;-81
2021/06/01 04:09:19;;;;;;;7.37;5.80;;;11.90;99.90;;;;;;5097190;28;20206;-78
2021/06/01 04:11:44;;;;;;;8.83;6.23;;;11.90;99.90;;;;;;5119286;28;20405;-78
2021/06/01 04:14:12;;;;;;;6.40;5.57;;;11.90;99.90;;;;;;5118768;28;20163;-79
2021/06/01 04:16:37;;;;;;;6.23;5.63;;;12.00;99.90;;;;;;5118971;28;20611;-78
2021/06/01 04:19:05;;;;;;;7.60;6.93;;;12.20;99.90;;;;;;5101289;28;20412;-80
2021/06/01 04:21:31;;;;;;;9.47;6.07;;;12.30;99.90;;;;;;5094016;28;20196;-81
2021/06/01 04:23:57;;;;;;;6.10;5.37;;;12.40;99.90;;;;;;5093354;28;20447;-80
2021/06/01 04:26:23;;;;;;;6.77;5.50;;;12.30;99.90;;;;;;5111358;28;20205;-81
2021/06/01 04:28:49;;;;;;;7.70;6.10;;;12.40;99.90;;;;;;5111358;28;20163;-80
2021/06/01 04:31:15;;;;;;;6.67;5.90;;;12.40;99.90;;;;;;5111126;28;20162;-81
2021/06/01 04:33:41;;;;;;;10.13;7.77;;;12.40;99.90;;;;;;5093021;28;20440;-80
2021/06/01 04:36:07;;;;;;;6.40;5.80;;;12.50;99.90;;;;;;5110853;28;20396;-80
2021/06/01 04:38:32;;;;;;;6.63;5.93;;;12.50;99.90;;;;;;5110597;28;20194;-80
2021/06/01 04:40:58;;;;;;;6.57;5.87;;;12.50;99.90;;;;;;5092202;28;20178;-80
2021/06/01 04:43:24;;;;;;;8.77;5.73;;;12.50;99.90;;;;;;5092521;28;20163;-80
2021/06/01 04:45:50;;;;;;;8.40;5.87;;;12.60;99.90;;;;;;5115204;28;20218;-80
2021/06/01 04:48:16;;;;;;;7.93;6.47;;;12.60;99.90;;;;;;5128955;28;20250;-80
2021/06/01 04:50:42;;;;;;;6.10;5.50;;;12.60;99.90;;;;;;5113011;28;20158;-81
2021/06/01 04:53:07;;;;;;;5.30;4.80;;;12.70;99.90;;;;;;5112820;28;20443;-80
2021/06/01 04:55:33;;;;;;;5.33;4.87;;;12.70;99.90;;;;;;5130733;28;20422;-81
2021/06/01 04:57:59;;;;;;;8.97;5.83;;;12.80;99.90;;;;;;5129911;28;20185;-81
2021/06/01 05:00:25;;;;;;;6.63;5.97;;;12.80;99.90;;;;;;5130856;28;20154;-81
2021/06/01 05:02:51;;;;;;;6.77;6.10;;;12.80;99.90;;;;;;5130620;28;20166;-80
2021/06/01 05:05:17;;;;;;;6.73;5.90;;;12.80;99.90;;;;;;5130538;28;20169;-80
2021/06/01 05:07:42;;;;;;;7.10;6.50;;;12.70;99.90;;;;;;5129616;28;20234;-80
2021/06/01 05:10:09;;;;;;;7.57;6.07;;;12.80;99.90;;;;;;5112232;28;20178;-80
2021/06/01 05:12:35;;;;;;;7.50;5.07;;;12.80;99.90;;;;;;5129179;28;20284;-80
2021/06/01 05:15:02;;;;;;;8.50;7.10;;;12.90;99.90;;;;;;5116195;28;20771;-80
2021/06/01 05:17:29;;;;;;;6.90;6.10;;;12.70;99.90;;;;;;5110759;28;20411;-81
2021/06/01 05:19:56;;;;;;;7.50;6.30;;;12.90;99.90;;;;;;5129806;28;20388;-80
2021/06/01 05:22:22;;;;;;;9.77;6.20;;;12.80;99.90;;;;;;5127869;28;20632;-81
2021/06/01 05:24:49;;;;;;;9.00;7.30;;;13.10;99.90;;;;;;5128984;28;20424;-80
2021/06/01 05:27:15;;;;;;;7.00;6.40;;;13.10;99.90;;;;;;5128351;28;20528;-80
2021/06/01 05:29:45;;;;;;;7.70;5.80;;;13.10;99.90;;;;;;5130113;28;20426;-81
2021/06/01 05:35:04;;;;;;;7.83;5.70;;;13.20;99.90;;;;;;5096514;28;20417;-81
2021/06/01 05:37:35;;;;;;;8.27;6.27;;;13.30;99.90;;;;;;5110833;28;20450;-80
2021/06/01 05:40:03;;;;;;;6.20;5.60;;;13.40;99.90;;;;;;5109951;28;20418;-81
2021/06/01 05:42:29;;;;;;;9.17;6.63;;;13.50;99.90;;;;;;5092151;28;20401;-81
2021/06/01 05:44:55;;;;;;;13.43;7.07;;;13.60;99.90;;;;;;5110217;28;20439;-81
2021/06/01 05:47:21;;;;;;;7.37;6.10;;;13.60;99.90;;;;;;5110566;28;20236;-79
2021/06/01 05:49:47;;;;;;;7.60;6.70;;;13.60;99.90;;;;;;5107169;28;20166;-80
2021/06/01 05:52:13;;;;;;;6.90;5.70;;;13.80;99.90;;;;;;5118668;28;20197;-79
2021/06/01 05:54:38;;;;;;;7.87;6.10;;;13.80;99.90;;;;;;5133816;28;20173;-81
2021/06/01 05:57:05;;;;;;;9.80;7.30;;;13.90;99.90;;;;;;5077795;28;20691;-81
2021/06/01 05:59:32;;;;;;;7.87;6.50;;;13.90;99.90;;;;;;5119093;27;20182;-79
2021/06/01 06:01:58;;;;;;;7.73;6.40;;;13.90;99.90;;;;;;5111763;28;20481;-81
2021/06/01 06:04:23;;;;;;;10.73;6.47;;;14.10;99.90;;;;;;5093185;28;20937;-81
2021/06/01 06:06:49;;;;;;;10.80;7.17;;;14.20;99.90;;;;;;5111188;28;20254;-81
2021/06/01 06:09:15;;;;;;;7.90;7.07;;;14.20;99.90;;;;;;5129649;28;20264;-80
2021/06/01 06:11:41;;;;;;;7.47;6.77;;;14.30;99.90;;;;;;5118534;28;20171;-79
2021/06/01 06:14:07;;;;;;;7.83;7.03;;;14.30;99.90;;;;;;5111806;28;20464;-78
2021/06/01 06:16:59;;;;;;;8.33;6.50;;;14.30;99.90;;;;;;5131088;28;20170;-81
2021/06/01 06:19:25;;;;;;;8.13;6.17;;;14.40;99.90;;;;;;5093542;28;20229;-81
2021/06/01 06:21:51;;;;;;;6.97;6.27;;;14.40;99.90;;;;;;5129836;28;20396;-80
2021/06/01 06:24:16;;;;;;;7.20;5.50;;;14.50;99.90;;;;;;5119300;28;20187;-81
2021/06/01 06:26:42;;;;;;;10.67;6.50;;;14.50;99.90;;;;;;5128523;28;20194;-81
2021/06/01 06:29:08;;;;;;;8.17;6.97;;;14.40;99.90;;;;;;5096723;28;20237;-81
2021/06/01 06:31:35;;;;;;;8.23;5.93;;;14.60;99.90;;;;;;5133745;28;20185;-81
2021/06/01 06:34:01;;;;;;;6.13;5.53;;;14.80;99.90;;;;;;5132640;27;20471;-80
2021/06/01 06:36:26;;;;;;;6.97;5.27;;;14.80;99.90;;;;;;5125927;28;20453;-80
2021/06/01 06:38:52;;;;;;;7.67;5.90;;;15.00;99.90;;;;;;5109647;28;20455;-81
2021/06/01 06:41:18;;;;;;;7.20;5.53;;;15.00;99.90;;;;;;5112362;28;20857;-81
2021/06/01 06:43:49;;;;;;;7.13;5.23;;;15.10;99.90;;;;;;5118139;28;20162;-81
2021/06/01 06:46:24;;;;;;;7.87;6.97;;;15.20;99.90;;;;;;5124833;28;20458;-81
2021/06/01 06:48:50;;;;;;;4.97;4.47;;;15.30;99.90;;;;;;5113161;28;20428;-80
2021/06/01 06:51:17;;;;;;;7.93;5.47;;;15.30;99.90;;;;;;5127744;28;20715;-81
2021/06/01 06:53:53;;;;;;;6.70;6.10;;;15.30;99.90;;;;;;5113029;28;20543;-81
2021/06/01 06:56:22;;;;;;;7.00;6.17;;;15.50;99.90;;;;;;5130489;28;20493;-81
2021/06/01 06:58:48;;;;;;;6.90;5.97;;;15.30;99.90;;;;;;5132957;27;20446;-81
2021/06/01 07:01:15;;;;;;;7.00;5.43;;;15.50;99.90;;;;;;5129611;27;20424;-81
2021/06/01 07:03:41;;;;;;;6.53;5.50;;;15.60;99.90;;;;;;5078365;28;20432;-81
2021/06/01 07:06:07;;;;;;;6.57;5.97;;;15.70;99.90;;;;;;5122093;28;20495;-82
2021/06/01 07:08:33;;;;;;;5.00;4.53;;;15.90;99.90;;;;;;5131643;28;20502;-79
2021/06/01 07:10:59;;;;;;;7.13;5.87;;;15.90;99.90;;;;;;5124482;28;20430;-78
2021/06/01 07:13:49;;;;;;;6.13;5.33;;;15.90;99.90;;;;;;5131024;28;20447;-78
2021/06/01 07:16:18;;;;;;;7.80;5.00;;;16.00;99.90;;;;;;5104034;28;20426;-79
2021/06/01 07:18:45;;;;;;;5.90;4.77;;;16.20;99.90;;;;;;5123327;28;20454;-81
2021/06/01 07:21:12;;;;;;;9.93;4.87;;;16.30;99.90;;;;;;5126668;28;20469;-81
2021/06/01 07:23:38;;;;;;;6.83;5.10;;;16.40;99.90;;;;;;5124023;28;20428;-79
2021/06/01 07:26:06;;;;;;;5.53;5.03;;;16.40;99.90;;;;;;5115524;28;20450;-82
2021/06/01 07:28:32;;;;;;;6.40;5.87;;;16.50;99.90;;;;;;5106254;28;20420;-80
2021/06/01 07:31:03;;;;;;;6.07;5.13;;;16.50;99.90;;;;;;5094494;28;20428;-80
2021/06/01 07:33:29;;;;;;;7.03;4.47;;;16.60;99.90;;;;;;5101082;28;20437;-81
2021/06/01 07:35:55;;;;;;;7.23;4.77;;;16.60;99.90;;;;;;5093969;28;20416;-80
2021/06/01 07:38:21;;;;;;;8.80;5.00;;;16.70;99.90;;;;;;5109910;28;20427;-80
2021/06/01 07:40:47;;;;;;;7.07;4.83;;;16.80;99.90;;;;;;5094339;28;20187;-80
2021/06/01 07:43:13;;;;;;;7.83;4.80;;;16.80;99.90;;;;;;5089308;28;20174;-81
2021/06/01 07:45:38;;;;;;;6.10;4.33;;;16.90;99.90;;;;;;5089224;28;20242;-80
2021/06/01 07:48:05;;;;;;;8.33;5.10;;;17.00;99.90;;;;;;5096439;28;20174;-80
2021/06/01 07:50:34;;;;;;;5.57;3.73;;;17.00;99.90;;;;;;5112566;28;20239;-80
2021/06/01 07:53:00;;;;;;;6.27;4.73;;;17.10;99.90;;;;;;5042724;28;20475;-81
2021/06/01 07:55:26;;;;;;;6.27;4.20;;;17.20;99.90;;;;;;5042692;28;20443;-80
2021/06/01 07:57:52;;;;;;;4.30;4.00;;;17.20;99.90;;;;;;5032185;28;20692;-80
2021/06/01 08:00:18;;;;;;;5.13;4.07;;;17.20;99.90;;;;;;5020046;28;20173;-81
2021/06/01 08:02:44;;;;;;;13.53;4.43;;;17.40;99.90;;;;;;5017799;28;20185;-81
2021/06/01 08:05:10;;;;;;;4.80;4.33;;;17.40;99.90;;;;;;5033049;28;20431;-80
2021/06/01 08:07:37;;;;;;;4.50;4.20;;;17.40;99.90;;;;;;5018104;28;20334;-80
2021/06/01 08:10:07;;;;;;;5.03;4.20;;;17.50;99.90;;;;;;5053722;28;20416;-80
2021/06/01 08:12:35;;;;;;;3.97;3.60;;;17.60;99.90;;;;;;5036861;28;20455;-80
2021/06/01 08:15:03;;;;;;;4.70;4.10;;;17.70;99.90;;;;;;5050513;28;20395;-81
2021/06/01 08:17:29;;;;;;;9.60;4.13;;;17.70;99.90;;;;;;5032917;28;20407;-80
2021/06/01 08:20:09;;;;;;;15.63;4.70;;;17.80;99.90;;;;;;5061095;28;20415;-81
2021/06/01 08:22:38;;;;;;;4.40;3.70;;;17.80;99.90;;;;;;4995739;28;20452;-81
2021/06/01 08:25:05;;;;;;;6.57;4.87;;;17.90;99.90;;;;;;5031843;28;20430;-81
2021/06/01 08:27:34;;;;;;;5.00;3.87;;;17.80;99.90;;;;;;5025255;28;20408;-80
2021/06/01 08:30:00;;;;;;;3.90;3.60;;;17.90;99.90;;;;;;5052349;28;20433;-80
2021/06/01 08:32:26;;;;;;;5.73;4.17;;;18.00;99.90;;;;;;5037266;28;20481;-80
2021/06/01 08:34:55;;;;;;;4.60;4.20;;;18.00;99.90;;;;;;5056540;28;20409;-80
2021/06/01 08:37:21;;;;;;;4.37;3.97;;;18.10;99.90;;;;;;5061996;28;20430;-80
2021/06/01 08:39:48;;;;;;;4.30;3.70;;;18.10;99.90;;;;;;5091419;28;20476;-80
2021/06/01 08:42:17;;;;;;;4.17;3.87;;;18.10;99.90;;;;;;5092538;28;20445;-84
2021/06/01 08:44:43;;;;;;;6.93;3.33;;;18.10;99.90;;;;;;5045227;28;20398;-81
2021/06/01 08:47:10;;;;;;;8.20;3.90;;;18.10;99.90;;;;;;5042888;28;20502;-80
2021/06/01 08:49:37;;;;;;;3.90;3.60;;;18.20;99.90;;;;;;5074721;28;20246;-78
2021/06/01 08:52:04;;;;;;;5.40;3.30;;;18.20;99.90;;;;;;5085518;28;20423;-79
2021/06/01 08:54:32;;;;;;;6.37;3.67;;;18.30;99.90;;;;;;5090044;28;20536;-81
2021/06/01 08:56:58;;;;;;;6.30;3.77;;;18.50;99.90;;;;;;5086289;28;20457;-80
2021/06/01 08:59:24;;;;;;;5.20;3.33;;;18.50;99.90;;;;;;5101543;28;20409;-81
2021/06/01 09:01:50;;;;;;;4.40;3.10;;;18.80;99.90;;;;;;5103386;28;20492;-78
2021/06/01 09:04:16;;;;;;;4.00;3.60;;;19.00;99.90;;;;;;5091338;28;20511;-79
2021/06/01 09:06:46;;;;;;;3.40;2.70;;;18.90;99.90;;;;;;5102755;28;20464;-80
2021/06/01 09:09:26;;;;;;;3.60;3.10;;;18.90;99.90;;;;;;5111721;28;20202;-79
2021/06/01 09:12:11;;;;;;;3.33;3.03;;;18.90;99.90;;;;;;5094915;28;20433;-77
2021/06/01 09:15:02;;;;;;;2.80;2.60;;;18.90;99.90;;;;;;5092417;28;20420;-80
2021/06/01 09:23:05;;;;;;;3.23;2.70;;;19.10;99.40;;;;;;5095253;28;20417;-79
2021/06/01 09:25:57;;;;;;;5.67;2.77;;;19.20;99.90;;;;;;5125724;28;20464;-80
2021/06/01 09:28:23;;;;;;;3.37;3.17;;;19.30;98.60;;;;;;5069705;28;20788;-79
2021/06/01 09:30:58;;;;;;;3.73;3.53;;;19.40;98.50;;;;;;5062658;28;20457;-80
2021/06/01 09:33:28;;;;;;;2.87;2.67;;;19.50;99.90;;;;;;5050364;28;20212;-80
2021/06/01 09:35:56;;;;;;;6.57;2.80;;;19.60;98.40;;;;;;5021489;28;20566;-80
2021/06/01 09:38:27;;;;;;;2.60;2.40;;;19.60;97.60;;;;;;5048219;28;20423;-80
2021/06/01 09:41:08;;;;;;;3.27;2.93;;;19.70;97.70;;;;;;5063973;28;20438;-80
2021/06/01 09:43:47;;;;;;;3.53;2.83;;;19.70;98.80;;;;;;5042449;28;20471;-80
2021/06/01 09:46:33;;;;;;;6.30;5.77;;;19.60;96.30;;;;;;5029055;28;20477;-80
2021/06/01 09:49:20;;;;;;;4.67;2.97;;;19.90;98.10;;;;;;5034517;28;20445;-80
2021/06/01 09:51:53;;;;;;;6.10;3.70;;;19.80;94.20;;;;;;5052718;28;20573;-80
2021/06/01 09:54:45;;;;;;;3.17;2.87;;;19.90;94.80;;;;;;5047795;28;20430;-80
2021/06/01 09:57:21;;;;;;;6.87;3.50;;;19.90;97.00;;;;;;5047313;28;20570;-81
2021/06/01 10:00:15;;;;;;;3.63;3.20;;;19.80;95.70;;;;;;5081379;28;20416;-81
2021/06/01 10:02:49;;;;;;;5.90;5.50;;;19.70;96.20;;;;;;5108325;28;20451;-80
2021/06/01 10:05:19;;;;;;;7.17;6.17;;;20.00;97.50;;;;;;5100150;28;20492;-79
2021/06/01 10:07:48;;;;;;;2.67;2.50;;;20.10;96.80;;;;;;5111360;28;20436;-80
2021/06/01 10:10:22;;;;;;;2.87;2.60;;;20.10;94.70;;;;;;5098820;28;20412;-81
2021/06/01 10:12:51;;;;;;;3.63;2.87;;;20.20;95.40;;;;;;5075365;28;20459;-81
2021/06/01 10:15:20;;;;;;;3.17;2.87;;;20.20;94.20;;;;;;5072936;28;20445;-80
2021/06/01 10:17:49;;;;;;;5.40;4.23;;;20.20;97.20;;;;;;5088013;28;20409;-80
2021/06/01 10:20:21;;;;;;;5.63;3.50;;;20.30;95.40;;;;;;5059080;28;20957;-81
2021/06/01 10:22:48;;;;;;;8.33;3.47;;;20.60;95.10;;;;;;5055403;28;20418;-82
2021/06/01 10:25:20;;;;;;;4.27;3.00;;;20.60;93.70;;;;;;5076843;28;20418;-81
2021/06/01 10:27:49;;;;;;;4.93;2.90;;;20.30;93.40;;;;;;5026880;28;20417;-81
2021/06/01 10:30:16;;;;;;;3.23;2.93;;;20.30;93.80;;;;;;5091097;28;20414;-81
2021/06/01 10:32:47;;;;;;;3.77;3.20;;;20.50;91.90;;;;;;5054119;28;20541;-80
2021/06/01 10:35:16;;;;;;;7.30;3.33;;;20.50;91.40;;;;;;5069029;28;20395;-81
2021/06/01 10:48:44;;;;;;;4.20;3.50;;;21.00;86.00;;;;;;5082031;28;20412;-82
2021/06/01 10:51:27;;;;;;;3.00;2.80;;;21.00;84.70;;;;;;5105583;28;20438;-80
2021/06/01 10:53:56;;;;;;;3.30;3.00;;;21.30;85.30;;;;;;5095985;28;20445;-80
2021/06/01 10:56:22;;;;;;;3.93;3.53;;;21.10;85.50;;;;;;5080264;28;20429;-81
2021/06/01 10:59:03;;;;;;;5.40;2.90;;;21.40;88.20;;;;;;5103511;28;20428;-81
2021/06/01 11:04:22;;;;;;;4.67;3.10;;;21.60;83.30;;;;;;5081989;28;20394;-80
2021/06/01 11:07:14;;;;;;;3.50;3.20;;;21.80;86.10;;;;;;5064239;28;20406;-79
2021/06/01 11:09:48;;;;;;;4.57;3.00;;;21.80;83.60;;;;;;5058284;28;20417;-82
2021/06/01 11:12:39;;;;;;;4.80;3.20;;;21.90;82.00;;;;;;5045207;28;20493;-80
2021/06/01 11:15:23;;;;;;;4.63;4.07;;;21.80;81.00;;;;;;5048742;28;20456;-82
2021/06/01 11:17:49;;;;;;;3.60;3.23;;;21.70;82.20;;;;;;5060758;28;20399;-81
2021/06/01 11:20:27;;;;;;;3.10;2.90;;;22.20;85.00;;;;;;5044642;28;20511;-81
2021/06/01 11:29:06;;;;;;;3.87;3.47;;;22.20;83.80;;;;;;5090523;28;20439;-79
2021/06/01 11:34:11;;;;;;;3.40;3.13;;;22.20;82.20;;;;;;5092091;28;20445;-78
2021/06/01 11:36:40;;;;;;;2.77;2.20;;;22.50;81.00;;;;;;5097067;28;20412;-80
2021/06/01 11:39:32;;;;;;;4.67;2.90;;;22.90;83.60;;;;;;5094733;28;20459;-80
2021/06/01 11:44:39;;;;;;;3.73;2.97;;;22.40;78.50;;;;;;5076446;28;20425;-79
2021/06/01 11:47:16;;;;;;;4.60;3.33;;;22.50;78.30;;;;;;5092062;28;20466;-81
2021/06/01 11:52:28;;;;;;;3.20;3.00;;;22.70;80.40;;;;;;5123911;28;20478;-80
2021/06/01 11:54:54;;;;;;;6.10;5.70;;;22.90;82.40;;;;;;5089760;28;20400;-78
2021/06/01 11:57:29;;;;;;;3.50;3.20;;;23.50;80.90;;;;;;5119419;28;20416;-80
2021/06/01 12:02:50;;;;;;;2.80;2.60;;;23.50;79.40;;;;;;5125552;28;20752;-81
2021/06/01 12:11:15;;;;;;;7.37;2.70;;;24.20;75.90;;;;;;5100897;28;20430;-81
2021/06/01 12:19:03;;;;;;;2.90;2.70;;;23.20;73.80;;;;;;5102020;28;20916;-80
2021/06/01 12:21:34;;;;;;;5.40;4.07;;;23.60;77.60;;;;;;5095313;28;20396;-80
2021/06/01 12:24:07;;;;;;;3.33;3.03;;;23.70;75.50;;;;;;5118701;28;20509;-81
2021/06/01 12:26:44;;;;;;;3.30;2.97;;;24.20;72.20;;;;;;5131471;28;20392;-82
2021/06/01 12:32:15;;;;;;;2.93;2.73;;;23.70;73.80;;;;;;5127211;28;20427;-81
2021/06/01 12:34:54;;;;;;;3.57;3.27;;;24.50;71.90;;;;;;5121135;28;20454;-82
2021/06/01 12:43:02;;;;;;;3.73;3.40;;;26.20;71.40;;;;;;5116370;28;20407;-81
2021/06/01 12:45:55;;;;;;;3.07;2.87;;;26.50;70.10;;;;;;5090881;28;20416;-82
2021/06/01 13:06:07;;;;;;;2.80;2.60;;;25.00;66.30;;;;;;5113639;28;20395;-81
2021/06/01 13:08:35;;;;;;;3.47;3.27;;;24.80;68.50;;;;;;5129797;28;20534;-82
2021/06/01 13:19:36;;;;;;;3.50;3.17;;;24.70;70.70;;;;;;5079423;28;20384;-82
2021/06/01 13:22:35;;;;;;;3.57;3.27;;;24.70;67.10;;;;;;5109681;28;20407;-80
2021/06/01 13:30:58;;;;;;;3.70;3.37;;;24.90;64.80;;;;;;5111284;28;20438;-82
2021/06/01 13:36:34;;;;;;;3.20;3.00;;;25.20;67.70;;;;;;5117634;28;20428;-81
2021/06/01 13:39:16;;;;;;;3.90;3.17;;;25.30;66.10;;;;;;5119546;28;20410;-80
2021/06/01 13:47:12;;;;;;;2.93;2.67;;;25.90;66.30;;;;;;5127404;28;20470;-81
2021/06/01 13:49:48;;;;;;;3.47;2.63;;;26.70;65.70;;;;;;5129349;28;20396;-81
2021/06/01 13:52:35;;;;;;;3.93;3.10;;;26.70;62.50;;;;;;5112196;28;20478;-82
2021/06/01 14:19:56;;;;;;;4.20;2.60;;;25.40;64.30;;;;;;5011964;28;20396;-81
2021/06/01 14:27:58;;;;;;;4.83;3.03;;;25.00;65.40;;;;;;4985033;28;20433;-83
2021/06/01 14:28:54;;;;;;;4.20;3.30;;;25.30;66.40;;;;;;4936629;29;20515;-80
2021/06/01 14:56:05;;;;;;;3.43;3.20;;;25.50;66.60;;;;;;5047152;28;20417;-81
2021/06/01 15:49:35;;;;;;;3.63;3.17;;;26.10;64.60;;;;;;5051204;28;20429;-83
2021/06/01 15:55:12;;;;;;;4.33;3.10;;;25.40;63.80;;;;;;5037267;28;20470;-82
2021/06/01 16:11:20;;;;;;;3.57;3.27;;;26.00;62.50;;;;;;5003947;28;20399;-79
2021/06/01 16:13:56;;;;;;;3.33;3.03;;;25.70;63.50;;;;;;5055235;28;20450;-82
2021/06/01 16:21:54;;;;;;;2.60;2.40;;;24.80;67.20;;;;;;5059029;28;20398;-81
2021/06/01 16:30:04;;;;;;;2.80;2.60;;;24.90;65.90;;;;;;5058469;28;20522;-81
2021/06/01 16:33:00;;;;;;;3.00;2.80;;;25.10;66.40;;;;;;5054421;28;20397;-82
2021/06/01 17:05:03;;;;;;;4.07;2.70;;;25.40;62.70;;;;;;5111056;28;20396;-83
2021/06/01 17:08:02;;;;;;;3.43;2.40;;;25.40;62.90;;;;;;5076047;28;20389;-82
2021/06/01 17:13:07;;;;;;;3.20;2.30;;;25.40;63.70;;;;;;5111367;28;20392;-82
2021/06/01 17:15:35;;;;;;;2.63;2.43;;;25.30;62.30;;;;;;5093238;28;20389;-81
2021/06/01 17:18:11;;;;;;;2.77;2.57;;;24.90;62.20;;;;;;5103455;28;20487;-82
2021/06/01 17:23:35;;;;;;;2.83;2.53;;;25.00;62.50;;;;;;5115150;28;20459;-83
2021/06/01 17:36:55;;;;;;;2.90;2.60;;;24.50;66.70;;;;;;5008571;28;20405;-82
2021/06/01 17:39:25;;;;;;;4.00;3.67;;;24.40;64.40;;;;;;4993876;28;20417;-82
2021/06/01 17:42:00;;;;;;;6.30;3.30;;;24.30;67.10;;;;;;4978102;28;20421;-85